sensor_id;sensor_type;location;lat;lon;timestamp;pressure;altitude;pressure_sealevel;temperature;humidity
68891;BME280;55932;48.702;8.884;2022-09-02T00:01:04;96200;;;11.6;62.5
68891;BME280;55932;48.702;8.884;2022-09-02T00:03:33;96200;;;11.5;62.5
68891;BME280;55932;48.702;8.884;2022-09-02T00:08:28;96190;;;11.4;62.5
68891;BME280;55932;48.702;8.884;2022-09-02T00:10:59;96190;;;11.4;62.5
68891;BME280;55932;48.702;8.884;2022-09-02T00:13:29;96180;;;11.5;62.5
68891;BME280;55932;48.702;8.884;2022-09-02T00:16:00;96180;;;11.5;62.5
68891;BME280;55932;48.702;8.884;2022-09-02T00:23:32;96180;;;11.2;63
68891;BME280;55932;48.702;8.884;2022-09-02T00:28:47;96180;;;11.1;63
68891;BME280;55932;48.702;8.884;2022-09-02T00:31:17;96170;;;11;63
68891;BME280;55932;48.702;8.884;2022-09-02T00:33:47;96180;;;11;63
68891;BME280;55932;48.702;8.884;2022-09-02T00:36:17;96180;;;10.9;63
68891;BME280;55932;48.702;8.884;2022-09-02T00:38:47;96180;;;10.9;63
68891;BME280;55932;48.702;8.884;2022-09-02T00:43:43;96170;;;10.9;63
68891;BME280;55932;48.702;8.884;2022-09-02T00:53:44;96160;;;10.7;63
68891;BME280;55932;48.702;8.884;2022-09-02T00:56:18;96170;;;10.7;63
68891;BME280;55932;48.702;8.884;2022-09-02T00:58:46;96170;;;10.7;62.5
68891;BME280;55932;48.702;8.884;2022-09-02T01:03:54;96160;;;10.7;62.5
68891;BME280;55932;48.702;8.884;2022-09-02T01:08:55;96170;;;10.6;63
68891;BME280;55932;48.702;8.884;2022-09-02T01:11:26;96170;;;10.6;63
68891;BME280;55932;48.702;8.884;2022-09-02T01:13:54;96170;;;10.6;62.5
68891;BME280;55932;48.702;8.884;2022-09-02T01:16:26;96170;;;10.6;63
68891;BME280;55932;48.702;8.884;2022-09-02T01:18:57;96170;;;10.5;62.5
68891;BME280;55932;48.702;8.884;2022-09-02T01:21:26;96170;;;10.5;63
68891;BME280;55932;48.702;8.884;2022-09-02T01:26:21;96170;;;10.4;63
68891;BME280;55932;48.702;8.884;2022-09-02T01:28:51;96160;;;10.4;63
68891;BME280;55932;48.702;8.884;2022-09-02T01:31:22;96170;;;10.5;62.5
68891;BME280;55932;48.702;8.884;2022-09-02T01:36:16;96170;;;10.5;62.5
68891;BME280;55932;48.702;8.884;2022-09-02T01:38:47;96170;;;10.6;62.5
68891;BME280;55932;48.702;8.884;2022-09-02T01:41:18;96170;;;10.5;62.5
68891;BME280;55932;48.702;8.884;2022-09-02T01:43:49;96170;;;10.5;62.5
68891;BME280;55932;48.702;8.884;2022-09-02T01:46:20;96170;;;10.5;62.5
68891;BME280;55932;48.702;8.884;2022-09-02T01:51:21;96160;;;10.4;62.5
68891;BME280;55932;48.702;8.884;2022-09-02T01:53:51;96160;;;10.3;63
68891;BME280;55932;48.702;8.884;2022-09-02T01:58:59;96160;;;10.2;63
68891;BME280;55932;48.702;8.884;2022-09-02T02:01:30;96160;;;10.2;63
68891;BME280;55932;48.702;8.884;2022-09-02T02:04:05;96160;;;10.2;63
68891;BME280;55932;48.702;8.884;2022-09-02T02:08:55;96160;;;10;63
68891;BME280;55932;48.702;8.884;2022-09-02T02:11:26;96160;;;10;63
68891;BME280;55932;48.702;8.884;2022-09-02T02:13:57;96160;;;10;63
68891;BME280;55932;48.702;8.884;2022-09-02T02:16:28;96160;;;10;63
68891;BME280;55932;48.702;8.884;2022-09-02T02:18:58;96160;;;9.9;63
68891;BME280;55932;48.702;8.884;2022-09-02T02:29:07;96150;;;9.8;63
68891;BME280;55932;48.702;8.884;2022-09-02T02:31:39;96150;;;9.8;63
68891;BME280;55932;48.702;8.884;2022-09-02T02:34:09;96150;;;9.8;63
68891;BME280;55932;48.702;8.884;2022-09-02T02:36:33;96140;;;9.8;63
68891;BME280;55932;48.702;8.884;2022-09-02T02:39:04;96140;;;9.8;63
68891;BME280;55932;48.702;8.884;2022-09-02T02:41:35;96140;;;9.8;63
68891;BME280;55932;48.702;8.884;2022-09-02T02:44:05;96150;;;9.8;63
68891;BME280;55932;48.702;8.884;2022-09-02T02:46:36;96150;;;9.9;62.5
68891;BME280;55932;48.702;8.884;2022-09-02T02:54:08;96140;;;9.7;63
68891;BME280;55932;48.702;8.884;2022-09-02T02:56:39;96150;;;9.7;63
68891;BME280;55932;48.702;8.884;2022-09-02T02:59:10;96140;;;9.7;63
68891;BME280;55932;48.702;8.884;2022-09-02T03:01:41;96140;;;9.7;63
68891;BME280;55932;48.702;8.884;2022-09-02T03:04:18;96140;;;9.7;63
68891;BME280;55932;48.702;8.884;2022-09-02T03:09:20;96140;;;9.7;63
68891;BME280;55932;48.702;8.884;2022-09-02T03:11:57;96150;;;9.7;63
68891;BME280;55932;48.702;8.884;2022-09-02T03:14:28;96140;;;9.7;63
68891;BME280;55932;48.702;8.884;2022-09-02T03:19:43;96130;;;9.9;62.5
68891;BME280;55932;48.702;8.884;2022-09-02T03:22:00;96130;;;9.8;62.5
68891;BME280;55932;48.702;8.884;2022-09-02T03:26:54;96140;;;9.7;63
68891;BME280;55932;48.702;8.884;2022-09-02T03:29:25;96130;;;9.7;63
68891;BME280;55932;48.702;8.884;2022-09-02T03:31:57;96130;;;9.8;62.5
68891;BME280;55932;48.702;8.884;2022-09-02T03:39:22;96130;;;9.6;63
68891;BME280;55932;48.702;8.884;2022-09-02T03:41:53;96130;;;9.5;63
68891;BME280;55932;48.702;8.884;2022-09-02T03:44:23;96130;;;9.5;63
68891;BME280;55932;48.702;8.884;2022-09-02T03:46:54;96130;;;9.6;63
68891;BME280;55932;48.702;8.884;2022-09-02T03:49:25;96130;;;9.6;63
68891;BME280;55932;48.702;8.884;2022-09-02T03:51:56;96130;;;9.5;63
68891;BME280;55932;48.702;8.884;2022-09-02T03:54:27;96130;;;9.4;63
68891;BME280;55932;48.702;8.884;2022-09-02T03:56:57;96130;;;9.4;63
68891;BME280;55932;48.702;8.884;2022-09-02T03:59:28;96130;;;9.4;63.5
68891;BME280;55932;48.702;8.884;2022-09-02T04:02:00;96130;;;9.4;63
68891;BME280;55932;48.702;8.884;2022-09-02T04:09:31;96130;;;9.3;63
68891;BME280;55932;48.702;8.884;2022-09-02T04:12:03;96130;;;9.4;63
68891;BME280;55932;48.702;8.884;2022-09-02T04:14:39;96120;;;9.5;63
68891;BME280;55932;48.702;8.884;2022-09-02T04:17:10;96130;;;9.4;63
68891;BME280;55932;48.702;8.884;2022-09-02T04:19:41;96130;;;9.3;63
68891;BME280;55932;48.702;8.884;2022-09-02T04:22:06;96130;;;9.3;63
68891;BME280;55932;48.702;8.884;2022-09-02T04:24:36;96130;;;9.3;63
68891;BME280;55932;48.702;8.884;2022-09-02T04:27:07;96130;;;9.3;63
68891;BME280;55932;48.702;8.884;2022-09-02T04:29:38;96130;;;9.2;63
68891;BME280;55932;48.702;8.884;2022-09-02T04:39:41;96130;;;9.2;63
68891;BME280;55932;48.702;8.884;2022-09-02T04:47:26;96130;;;9;63.5
68891;BME280;55932;48.702;8.884;2022-09-02T04:49:56;96130;;;9;63.5
68891;BME280;55932;48.702;8.884;2022-09-02T04:54:56;96130;;;9;63.5
68891;BME280;55932;48.702;8.884;2022-09-02T04:57:27;96130;;;9.1;63
68891;BME280;55932;48.702;8.884;2022-09-02T04:59:53;96130;;;9.1;63
68891;BME280;55932;48.702;8.884;2022-09-02T05:02:23;96130;;;9.1;63
68891;BME280;55932;48.702;8.884;2022-09-02T05:04:54;96130;;;9.1;63
68891;BME280;55932;48.702;8.884;2022-09-02T05:07:25;96130;;;9.1;63
68891;BME280;55932;48.702;8.884;2022-09-02T05:09:56;96130;;;9.1;63
68891;BME280;55932;48.702;8.884;2022-09-02T05:12:26;96130;;;9.1;63
68891;BME280;55932;48.702;8.884;2022-09-02T05:14:50;96130;;;9.1;63
68891;BME280;55932;48.702;8.884;2022-09-02T05:22:23;96120;;;9.3;63
68891;BME280;55932;48.702;8.884;2022-09-02T05:24:54;96120;;;9.3;62.5
68891;BME280;55932;48.702;8.884;2022-09-02T05:27:24;96120;;;9.4;62.5
68891;BME280;55932;48.702;8.884;2022-09-02T05:29:55;96120;;;9.4;63
68891;BME280;55932;48.702;8.884;2022-09-02T05:32:26;96120;;;9.4;62.5
68891;BME280;55932;48.702;8.884;2022-09-02T05:34:57;96120;;;9.5;62.5
68891;BME280;55932;48.702;8.884;2022-09-02T05:40:04;96120;;;9.7;62.5
68891;BME280;55932;48.702;8.884;2022-09-02T05:42:35;96120;;;9.8;62.5
68891;BME280;55932;48.702;8.884;2022-09-02T05:45:06;96120;;;9.9;62
68891;BME280;55932;48.702;8.884;2022-09-02T05:50:01;96120;;;10.2;62
68891;BME280;55932;48.702;8.884;2022-09-02T05:52:31;96130;;;10.3;62
68891;BME280;55932;48.702;8.884;2022-09-02T05:55:02;96130;;;10.4;62
68891;BME280;55932;48.702;8.884;2022-09-02T05:57:33;96130;;;10.5;62
68891;BME280;55932;48.702;8.884;2022-09-02T06:02:34;96130;;;10.8;61.5
68891;BME280;55932;48.702;8.884;2022-09-02T06:05:05;96130;;;11.1;61.5
68891;BME280;55932;48.702;8.884;2022-09-02T06:07:35;96120;;;11.3;61
68891;BME280;55932;48.702;8.884;2022-09-02T06:10:13;96130;;;11.4;61
68891;BME280;55932;48.702;8.884;2022-09-02T06:12:43;96130;;;11.5;61
68891;BME280;55932;48.702;8.884;2022-09-02T06:15:14;96130;;;11.6;61
68891;BME280;55932;48.702;8.884;2022-09-02T06:17:45;96130;;;11.7;61
68891;BME280;55932;48.702;8.884;2022-09-02T06:20:16;96120;;;11.7;61
68891;BME280;55932;48.702;8.884;2022-09-02T06:25:24;96120;;;11.8;61
68891;BME280;55932;48.702;8.884;2022-09-02T06:30:24;96120;;;12;61
68891;BME280;55932;48.702;8.884;2022-09-02T06:35:25;96120;;;12.1;61
68891;BME280;55932;48.702;8.884;2022-09-02T06:37:56;96120;;;12.4;60.5
68891;BME280;55932;48.702;8.884;2022-09-02T06:40:26;96110;;;12.8;60
68891;BME280;55932;48.702;8.884;2022-09-02T06:42:50;96110;;;12.7;60.5
68891;BME280;55932;48.702;8.884;2022-09-02T06:45:21;96120;;;12.7;60.5
68891;BME280;55932;48.702;8.884;2022-09-02T06:47:52;96120;;;12.8;60.5
68891;BME280;55932;48.702;8.884;2022-09-02T06:50:30;96120;;;13;60.5
68891;BME280;55932;48.702;8.884;2022-09-02T06:55:39;96120;;;13.3;60.5
68891;BME280;55932;48.702;8.884;2022-09-02T07:00:38;96120;;;13.7;60
68891;BME280;55932;48.702;8.884;2022-09-02T07:03:02;96110;;;13.9;59.5
68891;BME280;55932;48.702;8.884;2022-09-02T07:07:56;96100;;;15.6;58
68891;BME280;55932;48.702;8.884;2022-09-02T07:10:26;96090;;;20;51
68891;BME280;55932;48.702;8.884;2022-09-02T07:12:58;96080;;;23;47
68891;BME280;55932;48.702;8.884;2022-09-02T07:20:44;96080;;;26.8;43.5
68891;BME280;55932;48.702;8.884;2022-09-02T07:23:19;96080;;;27.9;42
68891;BME280;55932;48.702;8.884;2022-09-02T07:28:00;96080;;;26.7;45
68891;BME280;55932;48.702;8.884;2022-09-02T07:30:31;96070;;;26.8;45
68891;BME280;55932;48.702;8.884;2022-09-02T07:35:27;96070;;;26;46.5
68891;BME280;55932;48.702;8.884;2022-09-02T07:37:57;96070;;;26.4;45.5
68891;BME280;55932;48.702;8.884;2022-09-02T07:45:29;96080;;;24.8;49.5
68891;BME280;55932;48.702;8.884;2022-09-02T07:48:01;96070;;;24.3;50
68891;BME280;55932;48.702;8.884;2022-09-02T07:50:31;96070;;;25.6;47
68891;BME280;55932;48.702;8.884;2022-09-02T07:55:33;96070;;;26.6;46
68891;BME280;55932;48.702;8.884;2022-09-02T07:58:03;96070;;;27.5;44.5
68891;BME280;55932;48.702;8.884;2022-09-02T08:08:21;96070;;;26.2;47.5
68891;BME280;55932;48.702;8.884;2022-09-02T08:20:52;96080;;;27.7;46
68891;BME280;55932;48.702;8.884;2022-09-02T08:23:31;96070;;;27.6;46.5
68891;BME280;55932;48.702;8.884;2022-09-02T08:28:22;96080;;;27.1;47.5
68891;BME280;55932;48.702;8.884;2022-09-02T08:33:24;96080;;;28.5;46
68891;BME280;55932;48.702;8.884;2022-09-02T08:35:53;96080;;;28.2;47
68891;BME280;55932;48.702;8.884;2022-09-02T08:38:23;96080;;;28;47.5
68891;BME280;55932;48.702;8.884;2022-09-02T08:41:10;96070;;;27.1;49
68891;BME280;55932;48.702;8.884;2022-09-02T08:43:34;96070;;;27.5;48.5
68891;BME280;55932;48.702;8.884;2022-09-02T08:48:24;96070;;;27.9;48.5
68891;BME280;55932;48.702;8.884;2022-09-02T08:50:44;96060;;;27.7;49
68891;BME280;55932;48.702;8.884;2022-09-02T08:53:15;96070;;;28;49
68891;BME280;55932;48.702;8.884;2022-09-02T08:55:45;96060;;;28.1;49
68891;BME280;55932;48.702;8.884;2022-09-02T08:58:16;96070;;;28.8;48
68891;BME280;55932;48.702;8.884;2022-09-02T09:03:24;96060;;;29.1;47.5
68891;BME280;55932;48.702;8.884;2022-09-02T09:05:50;96070;;;28.1;49.5
68891;BME280;55932;48.702;8.884;2022-09-02T09:10:52;96060;;;28.3;49
68891;BME280;55932;48.702;8.884;2022-09-02T09:13:45;96060;;;29.3;47.5
68891;BME280;55932;48.702;8.884;2022-09-02T09:21:01;96060;;;28.2;49.5
68891;BME280;55932;48.702;8.884;2022-09-02T09:23:32;96050;;;28.7;48.5
68891;BME280;55932;48.702;8.884;2022-09-02T09:25:51;96040;;;29.6;47.5
68891;BME280;55932;48.702;8.884;2022-09-02T09:28:20;96050;;;30.4;46
68891;BME280;55932;48.702;8.884;2022-09-02T09:30:51;96050;;;30.3;46.5
68891;BME280;55932;48.702;8.884;2022-09-02T09:38:28;96050;;;30.4;47
68891;BME280;55932;48.702;8.884;2022-09-02T09:41:08;96040;;;29.4;49.5
68891;BME280;55932;48.702;8.884;2022-09-02T09:43:27;96040;;;30;48.5
68891;BME280;55932;48.702;8.884;2022-09-02T09:45:54;96040;;;30.2;48
68891;BME280;55932;48.702;8.884;2022-09-02T09:48:36;96040;;;30.5;47.5
68891;BME280;55932;48.702;8.884;2022-09-02T09:51:08;96040;;;30.7;47.5
68891;BME280;55932;48.702;8.884;2022-09-02T09:53:37;96040;;;30.2;48.5
68891;BME280;55932;48.702;8.884;2022-09-02T09:56:00;96040;;;30;48.5
68891;BME280;55932;48.702;8.884;2022-09-02T10:08:29;96030;;;28.6;51
68891;BME280;55932;48.702;8.884;2022-09-02T10:11:01;96020;;;29.1;50.5
68891;BME280;55932;48.702;8.884;2022-09-02T10:13:30;96030;;;29.5;49.5
68891;BME280;55932;48.702;8.884;2022-09-02T10:16:33;96030;;;29.8;49
68891;BME280;55932;48.702;8.884;2022-09-02T10:29:00;96020;;;29.7;49.5
68891;BME280;55932;48.702;8.884;2022-09-02T10:31:31;96010;;;30.3;48
68891;BME280;55932;48.702;8.884;2022-09-02T10:34:07;96010;;;30.5;47.5
68891;BME280;55932;48.702;8.884;2022-09-02T10:39:02;96000;;;29.5;50.5
68891;BME280;55932;48.702;8.884;2022-09-02T10:41:39;96000;;;28.9;51
68891;BME280;55932;48.702;8.884;2022-09-02T10:44:04;96000;;;28.7;50.5
68891;BME280;55932;48.702;8.884;2022-09-02T10:46:33;95990;;;28.7;51
68891;BME280;55932;48.702;8.884;2022-09-02T10:49:06;95990;;;28.6;51
68891;BME280;55932;48.702;8.884;2022-09-02T10:51:35;95980;;;29.1;50.5
68891;BME280;55932;48.702;8.884;2022-09-02T10:54:06;95980;;;29.4;49.5
68891;BME280;55932;48.702;8.884;2022-09-02T10:56:22;95970;;;29.3;49
68891;BME280;55932;48.702;8.884;2022-09-02T10:58:59;95970;;;29.1;50
68891;BME280;55932;48.702;8.884;2022-09-02T11:01:33;95970;;;29;50.5
68891;BME280;55932;48.702;8.884;2022-09-02T11:09:08;95960;;;29.6;49
68891;BME280;55932;48.702;8.884;2022-09-02T11:11:48;95960;;;29.7;49
68891;BME280;55932;48.702;8.884;2022-09-02T11:16:29;95960;;;29.9;50
68891;BME280;55932;48.702;8.884;2022-09-02T11:18:57;95960;;;30;49.5
68891;BME280;55932;48.702;8.884;2022-09-02T11:21:30;95950;;;29.3;50.5
68891;BME280;55932;48.702;8.884;2022-09-02T11:23:45;95950;;;29.1;50.5
68891;BME280;55932;48.702;8.884;2022-09-02T11:31:18;95950;;;30.2;49
68891;BME280;55932;48.702;8.884;2022-09-02T11:34:49;95950;;;30.4;49
68891;BME280;55932;48.702;8.884;2022-09-02T11:36:16;95950;;;30;49.5
68891;BME280;55932;48.702;8.884;2022-09-02T11:38:50;95950;;;29.2;50.5
68891;BME280;55932;48.702;8.884;2022-09-02T11:41:23;95940;;;28.6;51
68891;BME280;55932;48.702;8.884;2022-09-02T11:43:50;95940;;;28.7;51
68891;BME280;55932;48.702;8.884;2022-09-02T11:46:26;95940;;;28.6;51
68891;BME280;55932;48.702;8.884;2022-09-02T11:48:52;95950;;;28.4;51
68891;BME280;55932;48.702;8.884;2022-09-02T11:56:20;95950;;;29.8;49
68891;BME280;55932;48.702;8.884;2022-09-02T11:58:50;95950;;;29.5;49.5
68891;BME280;55932;48.702;8.884;2022-09-02T12:01:23;95940;;;29.1;50
68891;BME280;55932;48.702;8.884;2022-09-02T12:09:05;95950;;;29.6;49.5
68891;BME280;55932;48.702;8.884;2022-09-02T12:11:34;95950;;;29.7;48.5
68891;BME280;55932;48.702;8.884;2022-09-02T12:14:04;95940;;;29.8;49.5
68891;BME280;55932;48.702;8.884;2022-09-02T12:27:03;95940;;;30;50.5
68891;BME280;55932;48.702;8.884;2022-09-02T12:36:44;95930;;;30.8;49.5
68891;BME280;55932;48.702;8.884;2022-09-02T12:39:43;95930;;;30.3;50
68891;BME280;55932;48.702;8.884;2022-09-02T12:54:31;95910;;;29.7;49.5
68891;BME280;55932;48.702;8.884;2022-09-02T13:07:17;95890;;;30.3;48.5
68891;BME280;55932;48.702;8.884;2022-09-02T13:14:32;95890;;;30.7;47.5
68891;BME280;55932;48.702;8.884;2022-09-02T13:24:29;95870;;;29.5;50.5
68891;BME280;55932;48.702;8.884;2022-09-02T13:27:26;95860;;;29.2;50.5
68891;BME280;55932;48.702;8.884;2022-09-02T13:36:59;95850;;;30.2;48.5
68891;BME280;55932;48.702;8.884;2022-09-02T13:39:29;95850;;;29.6;49
68891;BME280;55932;48.702;8.884;2022-09-02T13:42:12;95850;;;29.6;49
68891;BME280;55932;48.702;8.884;2022-09-02T13:44:20;95840;;;29.3;49.5
68891;BME280;55932;48.702;8.884;2022-09-02T13:47:43;95840;;;29.1;49.5
68891;BME280;55932;48.702;8.884;2022-09-02T13:49:34;95840;;;29.3;49.5
68891;BME280;55932;48.702;8.884;2022-09-02T13:56:52;95840;;;29.8;48.5
68891;BME280;55932;48.702;8.884;2022-09-02T13:59:36;95830;;;30;48
68891;BME280;55932;48.702;8.884;2022-09-02T14:09:24;95830;;;29.6;48.5
68891;BME280;55932;48.702;8.884;2022-09-02T14:14:24;95820;;;30.6;47
68891;BME280;55932;48.702;8.884;2022-09-02T14:21:46;95810;;;30.5;47
68891;BME280;55932;48.702;8.884;2022-09-02T14:24:17;95810;;;30.9;46.5
68891;BME280;55932;48.702;8.884;2022-09-02T14:26:53;95810;;;30.8;47
68891;BME280;55932;48.702;8.884;2022-09-02T14:29:16;95810;;;30.9;46.5
68891;BME280;55932;48.702;8.884;2022-09-02T14:34:48;95790;;;30;47
68891;BME280;55932;48.702;8.884;2022-09-02T14:41:50;95790;;;28.6;47.5
68891;BME280;55932;48.702;8.884;2022-09-02T14:44:27;95790;;;27.6;49
68891;BME280;55932;48.702;8.884;2022-09-02T14:46:49;95780;;;27.2;50
68891;BME280;55932;48.702;8.884;2022-09-02T14:49:24;95780;;;26.9;50.5
68891;BME280;55932;48.702;8.884;2022-09-02T14:51:52;95770;;;27;50.5
68891;BME280;55932;48.702;8.884;2022-09-02T14:57:22;95770;;;26.9;50
68891;BME280;55932;48.702;8.884;2022-09-02T14:59:43;95770;;;27;50
68891;BME280;55932;48.702;8.884;2022-09-02T15:02:21;95770;;;26.6;51
68891;BME280;55932;48.702;8.884;2022-09-02T15:04:45;95770;;;26.5;51
68891;BME280;55932;48.702;8.884;2022-09-02T15:09:44;95780;;;26;51.5
68891;BME280;55932;48.702;8.884;2022-09-02T15:12:05;95780;;;25.8;52
68891;BME280;55932;48.702;8.884;2022-09-02T15:14:35;95790;;;26;52
68891;BME280;55932;48.702;8.884;2022-09-02T15:19:47;95790;;;25.9;51.5
68891;BME280;55932;48.702;8.884;2022-09-02T15:22:17;95790;;;26;51.5
68891;BME280;55932;48.702;8.884;2022-09-02T15:24:48;95800;;;25.8;52
68891;BME280;55932;48.702;8.884;2022-09-02T15:29:38;95800;;;25.7;52
68891;BME280;55932;48.702;8.884;2022-09-02T15:32:16;95800;;;25.7;52
68891;BME280;55932;48.702;8.884;2022-09-02T15:34:47;95800;;;25.4;52.5
68891;BME280;55932;48.702;8.884;2022-09-02T15:37:08;95810;;;24.9;53
68891;BME280;55932;48.702;8.884;2022-09-02T15:39:38;95800;;;24.6;53.5
68891;BME280;55932;48.702;8.884;2022-09-02T15:42:08;95800;;;24.6;53.5
68891;BME280;55932;48.702;8.884;2022-09-02T15:50:05;95790;;;24.3;53.5
68891;BME280;55932;48.702;8.884;2022-09-02T15:54:39;95790;;;24.2;53.5
68891;BME280;55932;48.702;8.884;2022-09-02T15:57:10;95780;;;24.2;53.5
68891;BME280;55932;48.702;8.884;2022-09-02T15:59:39;95770;;;24.2;53.5
68891;BME280;55932;48.702;8.884;2022-09-02T16:02:09;95770;;;24.3;53
68891;BME280;55932;48.702;8.884;2022-09-02T16:07:00;95780;;;24.1;53
68891;BME280;55932;48.702;8.884;2022-09-02T16:09:30;95780;;;24;53.5
68891;BME280;55932;48.702;8.884;2022-09-02T16:12:00;95790;;;23.8;53.5
68891;BME280;55932;48.702;8.884;2022-09-02T16:14:38;95790;;;23.6;54
68891;BME280;55932;48.702;8.884;2022-09-02T16:17:02;95790;;;23.5;54
68891;BME280;55932;48.702;8.884;2022-09-02T16:19:32;95780;;;23.3;54
68891;BME280;55932;48.702;8.884;2022-09-02T16:22:03;95780;;;23.1;54.5
68891;BME280;55932;48.702;8.884;2022-09-02T16:24:33;95780;;;23;54.5
68891;BME280;55932;48.702;8.884;2022-09-02T16:27:15;95790;;;22.9;54.5
68891;BME280;55932;48.702;8.884;2022-09-02T16:42:16;95770;;;23.7;53
68891;BME280;55932;48.702;8.884;2022-09-02T16:44:53;95770;;;23.7;53
68891;BME280;55932;48.702;8.884;2022-09-02T16:47:16;95780;;;23.6;53
68891;BME280;55932;48.702;8.884;2022-09-02T16:52:12;95780;;;23.5;53
68891;BME280;55932;48.702;8.884;2022-09-02T16:54:36;95780;;;23.4;53.5
68891;BME280;55932;48.702;8.884;2022-09-02T17:02:08;95770;;;22.6;54.5
68891;BME280;55932;48.702;8.884;2022-09-02T17:04:39;95770;;;22.3;54.5
68891;BME280;55932;48.702;8.884;2022-09-02T17:07:09;95770;;;22.1;55
68891;BME280;55932;48.702;8.884;2022-09-02T17:17:22;95780;;;21.5;55.5
68891;BME280;55932;48.702;8.884;2022-09-02T17:19:52;95780;;;21.4;55.5
68891;BME280;55932;48.702;8.884;2022-09-02T17:22:22;95780;;;21.3;55.5
68891;BME280;55932;48.702;8.884;2022-09-02T17:29:42;95770;;;21.1;55.5
68891;BME280;55932;48.702;8.884;2022-09-02T17:32:12;95770;;;21;55.5
68891;BME280;55932;48.702;8.884;2022-09-02T17:34:47;95770;;;20.9;55.5
68891;BME280;55932;48.702;8.884;2022-09-02T17:39:44;95770;;;20.7;56
68891;BME280;55932;48.702;8.884;2022-09-02T17:42:28;95770;;;20.6;56
68891;BME280;55932;48.702;8.884;2022-09-02T17:54:48;95770;;;20.2;56
68891;BME280;55932;48.702;8.884;2022-09-02T17:57:19;95770;;;20.2;56
68891;BME280;55932;48.702;8.884;2022-09-02T18:04:58;95770;;;19.9;56
68891;BME280;55932;48.702;8.884;2022-09-02T18:12:51;95770;;;19.8;56
68891;BME280;55932;48.702;8.884;2022-09-02T18:17:45;95770;;;19.6;56
68891;BME280;55932;48.702;8.884;2022-09-02T18:20:47;95770;;;19.5;56
68891;BME280;55932;48.702;8.884;2022-09-02T18:22:51;95770;;;19.4;56.5
68891;BME280;55932;48.702;8.884;2022-09-02T18:27:38;95780;;;19;57
68891;BME280;55932;48.702;8.884;2022-09-02T18:30:04;95790;;;18.8;57
68891;BME280;55932;48.702;8.884;2022-09-02T18:35:14;95790;;;18.6;57
68891;BME280;55932;48.702;8.884;2022-09-02T18:37:26;95790;;;18.5;57
68891;BME280;55932;48.702;8.884;2022-09-02T18:42:29;95800;;;18.3;57
68891;BME280;55932;48.702;8.884;2022-09-02T18:45:13;95800;;;18.3;57
68891;BME280;55932;48.702;8.884;2022-09-02T18:47:26;95800;;;18.3;57
68891;BME280;55932;48.702;8.884;2022-09-02T18:49:56;95800;;;18.3;57
68891;BME280;55932;48.702;8.884;2022-09-02T19:00:17;95790;;;18.2;57
68891;BME280;55932;48.702;8.884;2022-09-02T19:02:47;95800;;;18.1;57
68891;BME280;55932;48.702;8.884;2022-09-02T19:05:09;95800;;;18.1;57
68891;BME280;55932;48.702;8.884;2022-09-02T19:09:58;95800;;;18;57
68891;BME280;55932;48.702;8.884;2022-09-02T19:12:30;95800;;;18;57
68891;BME280;55932;48.702;8.884;2022-09-02T19:14:59;95800;;;18;57
68891;BME280;55932;48.702;8.884;2022-09-02T19:22:30;95800;;;17.9;57
68891;BME280;55932;48.702;8.884;2022-09-02T19:25:04;95800;;;17.8;57
68891;BME280;55932;48.702;8.884;2022-09-02T19:30:04;95800;;;17.9;57
68891;BME280;55932;48.702;8.884;2022-09-02T19:35:15;95800;;;17.8;57
68891;BME280;55932;48.702;8.884;2022-09-02T19:37:45;95800;;;17.7;57
68891;BME280;55932;48.702;8.884;2022-09-02T19:40:17;95800;;;17.6;57
68891;BME280;55932;48.702;8.884;2022-09-02T19:42:33;95790;;;17.5;57
68891;BME280;55932;48.702;8.884;2022-09-02T19:50:05;95790;;;17.2;57.5
68891;BME280;55932;48.702;8.884;2022-09-02T19:52:37;95790;;;17.1;57.5
68891;BME280;55932;48.702;8.884;2022-09-02T19:55:06;95790;;;17;57.5
68891;BME280;55932;48.702;8.884;2022-09-02T19:57:47;95790;;;17;57.5
68891;BME280;55932;48.702;8.884;2022-09-02T20:00:18;95790;;;17;57.5
68891;BME280;55932;48.702;8.884;2022-09-02T20:02:48;95780;;;17;57.5
68891;BME280;55932;48.702;8.884;2022-09-02T20:05:07;95780;;;17;57
68891;BME280;55932;48.702;8.884;2022-09-02T20:07:37;95780;;;17;57.5
68891;BME280;55932;48.702;8.884;2022-09-02T20:15:34;95770;;;16.8;57.5
68891;BME280;55932;48.702;8.884;2022-09-02T20:23:12;95780;;;16.5;57.5
68891;BME280;55932;48.702;8.884;2022-09-02T20:26:02;95780;;;16.5;57.5
68891;BME280;55932;48.702;8.884;2022-09-02T20:28:15;95770;;;16.4;57.5
68891;BME280;55932;48.702;8.884;2022-09-02T20:30:35;95770;;;16.4;57.5
68891;BME280;55932;48.702;8.884;2022-09-02T20:33:13;95780;;;16.4;57.5
68891;BME280;55932;48.702;8.884;2022-09-02T20:40:27;95770;;;16.5;57.5
68891;BME280;55932;48.702;8.884;2022-09-02T20:43:03;95780;;;16.5;57.5
68891;BME280;55932;48.702;8.884;2022-09-02T20:50:34;95790;;;16.2;57.5
68891;BME280;55932;48.702;8.884;2022-09-02T20:53:15;95790;;;16.2;57.5
68891;BME280;55932;48.702;8.884;2022-09-02T20:55:30;95790;;;16.2;57.5
68891;BME280;55932;48.702;8.884;2022-09-02T21:02:54;95800;;;16.3;57.5
68891;BME280;55932;48.702;8.884;2022-09-02T21:10:20;95790;;;16.3;57.5
68891;BME280;55932;48.702;8.884;2022-09-02T21:12:50;95790;;;16.2;57.5
68891;BME280;55932;48.702;8.884;2022-09-02T21:17:51;95790;;;16.1;57.5
68891;BME280;55932;48.702;8.884;2022-09-02T21:20:41;95790;;;16.2;57.5
68891;BME280;55932;48.702;8.884;2022-09-02T21:23:04;95790;;;16.2;57
68891;BME280;55932;48.702;8.884;2022-09-02T21:25:32;95790;;;16.1;57.5
68891;BME280;55932;48.702;8.884;2022-09-02T21:27:54;95780;;;16;57.5
68891;BME280;55932;48.702;8.884;2022-09-02T21:30:23;95780;;;16;57.5
68891;BME280;55932;48.702;8.884;2022-09-02T21:37:57;95780;;;16;57.5
68891;BME280;55932;48.702;8.884;2022-09-02T21:40:25;95790;;;16;57.5
68891;BME280;55932;48.702;8.884;2022-09-02T21:42:58;95790;;;15.9;57.5
68891;BME280;55932;48.702;8.884;2022-09-02T21:46:09;95790;;;15.9;57.5
68891;BME280;55932;48.702;8.884;2022-09-02T21:48:14;95790;;;15.7;57.5
68891;BME280;55932;48.702;8.884;2022-09-02T21:50:40;95790;;;15.6;57.5
68891;BME280;55932;48.702;8.884;2022-09-02T21:55:29;95790;;;15.5;58
68891;BME280;55932;48.702;8.884;2022-09-02T22:05:31;95800;;;15.2;58
68891;BME280;55932;48.702;8.884;2022-09-02T22:08:02;95800;;;15.2;58
68891;BME280;55932;48.702;8.884;2022-09-02T22:13:10;95790;;;15.4;57.5